Aviation Digital Data Service (ADDS)

Output produced by METARs form (0650 UTC 24 March 2019)
found at http://www.aviationweather.gov/metar/data/
 
K3AU 240635Z AUTO 17010KT 10SM OVC008 10/10 A2995 RMK AO2
K1K1 240635Z AUTO 19009KT 10SM OVC006 10/10 A2996 RMK AO2 T01020095
KCNU 240552Z AUTO 14011KT 10SM FEW110 10/09 A2998 RMK AO2 SLP149 60000 T01000089 10117 20100 401330094 58016
KCNU 240630Z 2407/2506 14009KT P6SM SCT035 
     FM240800 15009KT P6SM BKN015 
     FM241300 26009KT P6SM BKN012 
     FM241600 29007KT P6SM SKC
       
KCFV 240623Z AUTO 15006KT 10SM SCT021 10/09 A2997 RMK AO2 T01000089
KCBK 240635Z AUTO 30009KT 7SM SCT024 04/04 A2999 RMK AO2
KCNK 240624Z AUTO 21011KT 10SM SCT028 BKN033 08/06 A2990 RMK AO2 T00830056
KDDC 240552Z AUTO 32015KT 10SM SCT100 SCT120 08/04 A2997 RMK AO2 SLP141 T00830039 10156 20083 401780067 50005
KDDC 240520Z 2406/2506 33010KT P6SM SCT150
       
KEQA 240635Z AUTO 17011G16KT 10SM OVC007 11/10 A2995 RMK AO2
KEHA 240635Z AUTO 31008KT 10SM CLR 06/04 A3005 RMK AO2 T00620038
KEMP 240637Z AUTO 16013KT 6SM BR BKN017 OVC090 09/09 A2994 RMK AO2 T00940089
K13K 240635Z AUTO 16008KT 10SM OVC010 10/09 A2997 RMK AO2 T00980086
KGCK 240554Z AUTO 31008KT 10SM OVC095 07/04 A3001 RMK AO2 SLP155 T00720044 10139 20061 401670050 51009
KGCK 240520Z 2406/2506 33007KT P6SM SCT150
       
KGLD 240553Z AUTO 33008KT 10SM CLR 04/04 A2999 RMK AO2 SLP154 60001 T00440044 10072 20044 51008
KGLD 240530Z 2406/2506 32008KT P6SM SCT013 BKN030 
     TEMPO 2412/2416 BKN013 
     FM241600 34008KT P6SM SCT015 BKN050 
     FM250200 04008KT P6SM SCT020 BKN035
       
KGBD 240556Z AUTO 25006KT 10SM CLR 06/04 A2997 RMK AO2 SLP149 T00610044 10172 20061 401940061 51016
KGBD 240520Z 2406/2506 28009KT P6SM SCT170 
     FM241200 31009KT P6SM SCT220
       
KHYS 240556Z AUTO 29011KT 10SM CLR 07/04 A2996 RMK AO2 SLP147 T00670044 10139 20067 401780044 51011
KHYS 240520Z 2406/2506 32013KT P6SM SCT150
       
KHLC 240553Z AUTO 26009KT 7SM CLR 05/04 A2995 RMK AO2 SLP146 T00500039 10111 20050 401330050 51009 $
KHQG 240635Z AUTO 30006KT 10SM CLR 03/02 A3003 RMK AO2 T00340023
KHUT 240604Z AUTO 20009KT 9SM SCT026 BKN085 OVC110 11/09 A2997 RMK AO2 T01110094 $
KHUT 240613Z 2406/2506 24007KT P6SM BKN080 OVC100 
     FM241000 29007KT P6SM BKN080 
     FM241200 31009KT P6SM SKC
       
KIDP 240635Z AUTO 16006KT 10SM BKN016 09/08 A2998 RMK AO2 LTG DSNT E T00920084
KK88 240635Z AUTO 14008KT 10SM CLR 08/08 A2999 RMK AO1 T00830083
KJHN 240635Z AUTO 29008KT 10SM CLR 04/02 A3003 RMK AO2 T00430015
KLWC 240552Z AUTO 15008KT 10SM OVC038 10/07 A2999 RMK AO2 SLP155 T01000067 10139 20100 401440078 58009
KLBL 240556Z AUTO 33009KT 10SM CLR 06/03 A3002 RMK AO2 SLP161 T00560033 10172 20050 401890044 53012
KLBL 240520Z 2406/2506 33008KT P6SM SCT150
       
KLYO 240635Z AUTO 27005KT 10SM SCT070 SCT120 08/06 A2997 RMK AO2 T00800059
KMHK 240648Z AUTO 21008KT 10SM OVC009 12/09 A2993 RMK AO2 CIG 007V011
KMHK 240520Z 2406/2506 19013G19KT 6SM -SHRA VCTS BKN010CB OVC025 
     FM240800 22008KT P6SM VCSH OVC012 
     FM241000 25008KT P6SM SCT025 BKN035 
     FM241500 34010KT P6SM BKN025
       
KMYZ 240635Z AUTO 17009G14KT 10SM BKN007 OVC011 10/10 A2991 RMK AO2
KEWK 240644Z AUTO 24010KT 3SM -RA BR OVC003 10/10 A2998 RMK AO2 LTG DSNT SW RAB05 P0000
KOIN 240635Z AUTO 29010KT 5SM BR SCT022 BKN080 05/04 A3000 RMK AO1 T00450041
KOJC 240553Z AUTO 16015G20KT 10SM CLR 09/07 A2999 RMK AO2 SLP155 60001 T00890067 10128 20083 401440083 58012
KIXD 240553Z AUTO 16012G23KT 10SM CLR 09/07 A3000 RMK AO2 SLP157 60000 T00940072 10128 20094 401500089 58010
KIXD 240520Z 2406/2506 16012KT P6SM OVC028 
     TEMPO 2409/2413 6SM -SHRA BR OVC008 
     FM241300 25009KT P6SM OVC015 
     FM241800 30010KT P6SM OVC025
       
KOWI 240635Z AUTO 15010KT 10SM FEW030 SCT037 BKN110 09/08 A2997 RMK AO2
KPPF 240640Z AUTO 15005KT 10SM BKN018 10/09 A2999 RMK AO2 T01000094
KPTS 240635Z AUTO 15008KT 10SM CLR 10/08 A2999 RMK AO2 LTG DSNT SE T00960081
KPTT 240635Z AUTO 13003KT 10SM BKN080 10/07 A2997 RMK AO2 T01000068
KRSL 240553Z AUTO 25009KT 10SM CLR 06/05 A2993 RMK AO2 SLP137 T00560050 10150 20056 401780056 51014
KRSL 240520Z 2406/2506 27011KT P6SM SCT170 
     FM241500 32011KT P6SM SCT060 
     FM242100 34012KT P6SM BKN110
       
KSYF 240635Z AUTO 29004KT 10SM CLR 04/03 A3000 RMK AO2 T00380030
KSLN 240553Z AUTO 23009KT 9SM OVC048 11/09 A2995 RMK AO2 SLP139 T01110089 10150 20106 401720078 51015
KSLN 240520Z 2406/2506 19009KT P6SM SCT110 
     FM241500 31012KT P6SM BKN027 
     FM242100 33013KT P6SM SCT080
       
K19S 240635Z AUTO 32010KT 10SM CLR 05/04 A3002 RMK AO2 T00540036
K3K3 240635Z AUTO 31006KT 10SM OVC100 03/01 A3004 RMK AO2
KFOE 240643Z AUTO 18007KT 10SM BKN026 OVC085 11/07 A2996 RMK AO2 T01060072
KFOE 240520Z 2406/2506 15013G19KT P6SM OVC015 
     FM240800 19010KT 6SM -SHRA VCTS BKN009CB OVC015 
     FM241100 24010KT P6SM VCSH OVC015 
     FM241300 27012KT P6SM SCT025 BKN035 
     FM241800 32012KT P6SM BKN025
       
KTOP 240553Z AUTO 14009G18KT 10SM BKN031 BKN095 OVC120 11/07 A2996 RMK AO2 SLP145 T01060072 10133 20106 401500094 56012
KTOP 240520Z 2406/2506 15010KT P6SM OVC015 
     FM240800 19008KT 6SM -SHRA VCTS BKN009CB OVC015 
     FM241100 24006KT P6SM VCSH OVC015 
     FM241300 27010KT P6SM SCT025 BKN035 
     FM241800 32010KT P6SM BKN025
       
KULS 240635Z AUTO 30007KT 10SM CLR 03/02 A3001 RMK AO2
KBEC 240635Z AUTO 19007KT 7SM OVC004 10/10 A2995 RMK AO2 T01020095
KAAO 240604Z AUTO 17012G22KT 4SM BR OVC004 11/10 A2994 RMK AO2 T01060100
KICT 240553Z 17012KT 2SM BR OVC003 11/10 A2995 RMK AO2 SLP138 T01110100 10156 20111 401720089 50003 $
KICT 240558Z 2406/2506 17009KT 2SM BR OVC003 
     TEMPO 2406/2409 1SM BR 
     FM240900 28007KT P6SM BKN023 
     FM241000 29005KT P6SM SCT025 BKN120 
     FM241200 30007KT P6SM SKC